createdAt,value
2023-03-12T00:01:23.955Z,-2.52
2023-03-12T00:03:51.521Z,-2.54
2023-03-12T00:06:19.636Z,-2.60
2023-03-12T00:08:46.726Z,-2.63
2023-03-12T00:11:16.876Z,-2.59
2023-03-12T00:13:43.823Z,-2.61
2023-03-12T00:16:13.181Z,-2.57
2023-03-12T00:18:40.066Z,-2.52
2023-03-12T00:21:07.641Z,-2.47
2023-03-12T00:23:35.210Z,-2.48
2023-03-12T00:26:11.098Z,-2.54
2023-03-12T00:28:38.078Z,-2.59
2023-03-12T00:31:14.359Z,-2.67
2023-03-12T00:33:41.099Z,-2.74
2023-03-12T00:36:08.124Z,-2.76
2023-03-12T00:38:40.256Z,-2.78
2023-03-12T00:41:06.959Z,-2.81
2023-03-12T00:43:33.704Z,-2.83
2023-03-12T00:46:00.549Z,-2.81
2023-03-12T00:48:27.225Z,-2.83
2023-03-12T00:50:53.606Z,-2.87
2023-03-12T00:53:20.146Z,-2.89
2023-03-12T00:55:46.656Z,-2.84
2023-03-12T00:58:13.385Z,-2.83
2023-03-12T01:00:39.783Z,-2.88
2023-03-12T01:03:06.205Z,-2.95
2023-03-12T01:05:35.109Z,-2.95
2023-03-12T01:08:01.508Z,-2.95
2023-03-12T01:10:28.742Z,-2.90
2023-03-12T01:12:55.151Z,-2.83
2023-03-12T01:15:22.116Z,-2.91
2023-03-12T01:17:49.868Z,-2.97
2023-03-12T01:20:16.599Z,-2.97
2023-03-12T01:22:43.315Z,-2.99
2023-03-12T01:25:12.063Z,-2.89
2023-03-12T01:27:38.383Z,-2.94
2023-03-12T01:30:05.888Z,-3.00
2023-03-12T01:32:33.244Z,-3.02
2023-03-12T01:35:00.038Z,-2.97
2023-03-12T01:37:27.501Z,-2.91
2023-03-12T01:39:54.541Z,-2.96
2023-03-12T01:42:21.182Z,-2.95
2023-03-12T01:44:55.600Z,-2.95
2023-03-12T01:47:22.634Z,-2.88
2023-03-12T01:49:51.086Z,-2.88
2023-03-12T01:52:21.887Z,-2.86
2023-03-12T01:54:57.603Z,-2.85
2023-03-12T01:57:30.373Z,-3.00
2023-03-12T02:00:02.819Z,-2.91
2023-03-12T02:02:29.394Z,-2.75
2023-03-12T02:05:05.620Z,-2.71
2023-03-12T02:07:34.527Z,-2.76
2023-03-12T02:10:01.908Z,-2.81
2023-03-12T02:12:28.422Z,-2.85
2023-03-12T02:14:55.149Z,-2.84
2023-03-12T02:17:21.598Z,-2.81
2023-03-12T02:20:13.194Z,-2.75
2023-03-12T02:22:42.492Z,-2.58
2023-03-12T02:25:37.113Z,-2.48
2023-03-12T02:28:07.349Z,-2.51
2023-03-12T02:30:35.486Z,-2.58
2023-03-12T02:33:07.344Z,-2.53
2023-03-12T02:35:34.425Z,-2.52
2023-03-12T02:38:01.290Z,-2.53
2023-03-12T02:40:35.142Z,-2.54
2023-03-12T02:43:03.205Z,-2.45
2023-03-12T02:45:29.622Z,-2.36
2023-03-12T02:47:56.306Z,-2.33
2023-03-12T02:50:23.045Z,-2.26
2023-03-12T02:52:49.669Z,-2.23
2023-03-12T02:55:16.060Z,-2.19
2023-03-12T02:57:42.541Z,-2.16
2023-03-12T03:00:10.744Z,-2.19
2023-03-12T03:02:38.756Z,-2.17
2023-03-12T03:05:07.341Z,-2.18
2023-03-12T03:07:33.819Z,-2.24
2023-03-12T03:10:00.532Z,-2.20
2023-03-12T03:12:27.340Z,-2.28
2023-03-12T03:14:53.776Z,-2.21
2023-03-12T03:17:20.247Z,-2.22
2023-03-12T03:19:47.008Z,-2.26
2023-03-12T03:22:13.335Z,-2.35
2023-03-12T03:24:39.679Z,-2.42
2023-03-12T03:27:06.200Z,-2.50
2023-03-12T03:29:32.672Z,-2.57
2023-03-12T03:31:59.246Z,-2.60
2023-03-12T03:34:26.070Z,-2.65
2023-03-12T03:36:52.561Z,-2.65
2023-03-12T03:39:18.905Z,-2.65
2023-03-12T03:41:45.353Z,-2.66
2023-03-12T03:44:11.715Z,-2.65
2023-03-12T03:46:38.239Z,-2.58
2023-03-12T03:49:04.820Z,-2.45
2023-03-12T03:51:33.075Z,-2.31
2023-03-12T03:53:59.828Z,-2.28
2023-03-12T03:56:27.242Z,-2.26
2023-03-12T03:58:53.970Z,-2.11
2023-03-12T04:01:20.829Z,-2.08
2023-03-12T04:03:47.439Z,-2.19
2023-03-12T04:06:13.825Z,-2.12
2023-03-12T04:08:40.747Z,-2.01
2023-03-12T04:11:09.970Z,-1.95
2023-03-12T04:13:37.243Z,-1.88
2023-03-12T04:16:04.098Z,-1.87
2023-03-12T04:18:30.731Z,-1.90
2023-03-12T04:20:57.123Z,-1.94
2023-03-12T04:23:23.545Z,-1.94
2023-03-12T04:25:50.079Z,-1.95
2023-03-12T04:28:17.512Z,-1.98
2023-03-12T04:30:44.033Z,-2.02
2023-03-12T04:33:10.948Z,-2.06
2023-03-12T04:35:37.426Z,-2.02
2023-03-12T04:38:04.149Z,-1.87
2023-03-12T04:40:30.572Z,-1.84
2023-03-12T04:42:57.061Z,-1.77
2023-03-12T04:45:23.708Z,-1.68
2023-03-12T04:47:50.047Z,-1.66
2023-03-12T04:50:16.710Z,-1.58
2023-03-12T04:52:43.399Z,-1.52
2023-03-12T04:55:10.114Z,-1.61
2023-03-12T04:57:36.503Z,-1.52
2023-03-12T05:00:05.028Z,-1.60
2023-03-12T05:02:31.573Z,-1.59
2023-03-12T05:04:57.957Z,-1.69
2023-03-12T05:07:24.418Z,-1.68
2023-03-12T05:09:51.085Z,-1.64
2023-03-12T05:12:17.824Z,-1.64
2023-03-12T05:14:44.274Z,-1.52
2023-03-12T05:17:10.754Z,-1.51
2023-03-12T05:19:37.148Z,-1.45
2023-03-12T05:22:03.818Z,-1.38
2023-03-12T05:24:30.256Z,-1.42
2023-03-12T05:26:57.090Z,-1.48
2023-03-12T05:29:23.733Z,-1.59
2023-03-12T05:31:50.291Z,-1.61
2023-03-12T05:34:16.807Z,-1.66
2023-03-12T05:36:43.340Z,-1.66
2023-03-12T05:39:10.012Z,-1.59
2023-03-12T05:41:36.422Z,-1.55
2023-03-12T05:44:03.055Z,-1.40
2023-03-12T05:46:29.532Z,-1.34
2023-03-12T05:48:56.119Z,-1.26
2023-03-12T05:51:22.572Z,-1.17
2023-03-12T05:53:49.241Z,-1.18
2023-03-12T05:56:17.938Z,-1.23
2023-03-12T05:58:45.325Z,-1.24
2023-03-12T06:01:15.857Z,-1.17
2023-03-12T06:03:42.666Z,-1.11
2023-03-12T06:06:09.571Z,-1.04
2023-03-12T06:08:36.061Z,-0.94
2023-03-12T06:11:02.715Z,-0.96
2023-03-12T06:13:29.476Z,-1.00
2023-03-12T06:16:02.191Z,-1.01
2023-03-12T06:18:28.986Z,-0.99
2023-03-12T06:20:55.450Z,-0.95
2023-03-12T06:23:21.939Z,-0.93
2023-03-12T06:25:48.599Z,-0.91
2023-03-12T06:28:15.018Z,-0.99
2023-03-12T06:30:41.479Z,-0.99
2023-03-12T06:33:09.426Z,-0.98
2023-03-12T06:35:35.800Z,-0.88
2023-03-12T06:38:02.199Z,-0.88
2023-03-12T06:40:28.621Z,-0.98
2023-03-12T06:42:56.439Z,-1.01
2023-03-12T06:45:22.961Z,-1.06
2023-03-12T06:47:49.508Z,-0.94
2023-03-12T06:50:16.545Z,-0.86
2023-03-12T06:52:43.084Z,-0.98
2023-03-12T06:55:09.907Z,-1.03
2023-03-12T06:57:36.316Z,-0.95
2023-03-12T07:00:03.606Z,-0.79
2023-03-12T07:02:30.098Z,-0.66
2023-03-12T07:04:56.792Z,-0.61
2023-03-12T07:07:23.647Z,-0.44
2023-03-12T07:09:50.047Z,-0.35
2023-03-12T07:12:16.480Z,-0.43
2023-03-12T07:14:42.979Z,-0.35
2023-03-12T07:17:09.448Z,-0.38
2023-03-12T07:19:36.084Z,-0.28
2023-03-12T07:22:02.432Z,-0.06
2023-03-12T07:24:28.889Z,0.06
2023-03-12T07:26:55.381Z,-0.07
2023-03-12T07:29:21.823Z,0.13
2023-03-12T07:31:48.343Z,0.07
2023-03-12T07:34:14.877Z,-0.07
2023-03-12T07:36:41.546Z,0.05
2023-03-12T07:39:08.323Z,0.17
2023-03-12T07:41:34.832Z,0.30
2023-03-12T07:44:01.527Z,0.41
2023-03-12T07:46:27.996Z,0.50
2023-03-12T07:48:54.415Z,0.51
2023-03-12T07:51:21.138Z,0.46
2023-03-12T07:53:47.806Z,0.28
2023-03-12T07:56:14.336Z,0.43
2023-03-12T07:58:40.893Z,0.39
2023-03-12T08:01:07.832Z,0.50
2023-03-12T08:03:34.738Z,0.56
2023-03-12T08:06:03.990Z,0.81
2023-03-12T08:08:31.322Z,0.86
2023-03-12T08:10:59.377Z,1.13
2023-03-12T08:13:26.808Z,1.39
2023-03-12T08:15:54.210Z,1.51
2023-03-12T08:18:21.397Z,1.52
2023-03-12T08:20:53.958Z,1.59
2023-03-12T08:23:21.569Z,1.73
2023-03-12T08:25:50.211Z,2.03
2023-03-12T08:28:17.878Z,2.21
2023-03-12T08:30:49.373Z,2.19
2023-03-12T08:33:16.187Z,2.12
2023-03-12T08:35:42.802Z,2.51
2023-03-12T08:38:09.849Z,2.45
2023-03-12T08:40:36.229Z,2.57
2023-03-12T08:43:03.155Z,2.56
2023-03-12T08:45:30.935Z,2.51
2023-03-12T08:47:57.555Z,2.40
2023-03-12T08:50:24.244Z,2.41
2023-03-12T08:52:50.720Z,2.35
2023-03-12T08:55:17.768Z,2.40
2023-03-12T08:57:44.291Z,2.41
2023-03-12T09:00:11.663Z,2.46
2023-03-12T09:02:38.807Z,2.64
2023-03-12T09:05:06.089Z,2.73
2023-03-12T09:07:32.678Z,2.87
2023-03-12T09:09:59.493Z,2.91
2023-03-12T09:12:26.214Z,2.94
2023-03-12T09:15:08.009Z,3.11
2023-03-12T09:17:34.594Z,3.26
2023-03-12T09:20:01.009Z,3.30
2023-03-12T09:22:29.470Z,3.27
2023-03-12T09:24:56.872Z,3.29
2023-03-12T09:27:23.433Z,3.45
2023-03-12T09:29:59.330Z,3.49
2023-03-12T09:32:27.890Z,3.26
2023-03-12T09:34:54.458Z,3.11
2023-03-12T09:37:23.722Z,3.22
2023-03-12T09:39:51.363Z,3.36
2023-03-12T09:42:27.555Z,3.34
2023-03-12T09:44:57.310Z,3.66
2023-03-12T09:47:33.710Z,3.86
2023-03-12T09:50:35.523Z,3.81
2023-03-12T09:53:09.951Z,3.93
2023-03-12T09:55:40.929Z,4.08
2023-03-12T09:58:18.479Z,4.44
2023-03-12T10:00:47.450Z,4.45
2023-03-12T10:03:40.001Z,4.76
2023-03-12T10:06:26.566Z,4.76
2023-03-12T10:09:11.357Z,4.97
2023-03-12T10:12:07.818Z,5.05
2023-03-12T10:14:52.949Z,4.95
2023-03-12T10:17:47.539Z,5.17
2023-03-12T10:20:30.627Z,5.62
2023-03-12T10:23:17.073Z,5.83
2023-03-12T10:25:53.175Z,5.75
2023-03-12T10:28:55.251Z,6.44
2023-03-12T10:31:53.285Z,6.78
2023-03-12T10:34:30.695Z,6.17
2023-03-12T10:37:02.961Z,6.23
2023-03-12T10:39:29.465Z,5.84
2023-03-12T10:42:00.279Z,6.07
2023-03-12T10:44:27.516Z,6.39
2023-03-12T10:47:28.869Z,6.34
2023-03-12T10:50:11.022Z,6.71
2023-03-12T10:52:37.506Z,6.94
2023-03-12T10:55:14.031Z,6.78
2023-03-12T10:57:41.918Z,6.85
2023-03-12T11:00:10.252Z,6.76
2023-03-12T11:02:43.173Z,6.79
2023-03-12T11:05:28.638Z,6.92
2023-03-12T11:07:55.951Z,7.17
2023-03-12T11:10:37.528Z,7.30
2023-03-12T11:13:39.659Z,7.23
2023-03-12T11:16:15.435Z,7.59
2023-03-12T11:18:58.017Z,7.82
2023-03-12T11:21:24.964Z,7.48
2023-03-12T11:23:57.713Z,7.45
2023-03-12T11:26:40.773Z,7.88
2023-03-12T11:29:19.455Z,7.71
2023-03-12T11:31:58.810Z,7.44
2023-03-12T11:34:30.588Z,7.59
2023-03-12T11:37:33.934Z,7.75
2023-03-12T11:40:28.109Z,7.94
2023-03-12T11:43:01.361Z,8.03
2023-03-12T11:46:04.761Z,8.22
2023-03-12T11:48:42.681Z,8.08
2023-03-12T11:51:17.822Z,8.24
2023-03-12T11:54:18.395Z,8.89
2023-03-12T11:56:57.011Z,8.98
2023-03-12T11:59:45.903Z,8.89
2023-03-12T12:02:34.220Z,9.48
2023-03-12T12:05:19.648Z,9.91
2023-03-12T12:08:02.160Z,9.79
2023-03-12T12:11:00.587Z,9.61
2023-03-12T12:13:38.290Z,9.50
2023-03-12T12:16:37.823Z,9.46
2023-03-12T12:19:24.644Z,9.59
2023-03-12T12:22:23.067Z,10.03
2023-03-12T12:25:12.550Z,10.25
2023-03-12T12:27:56.089Z,10.36
2023-03-12T12:30:55.906Z,10.51
2023-03-12T12:34:00.356Z,10.68
2023-03-12T12:36:30.874Z,10.87
2023-03-12T12:39:03.514Z,10.93
2023-03-12T12:41:35.619Z,11.01
2023-03-12T12:44:13.029Z,11.15
2023-03-12T12:46:43.999Z,11.41
2023-03-12T12:49:15.171Z,11.59
2023-03-12T12:51:49.714Z,11.45
2023-03-12T12:54:56.677Z,11.44
2023-03-12T12:57:38.564Z,11.24
2023-03-12T13:00:13.499Z,11.28
2023-03-12T13:02:44.261Z,11.26
2023-03-12T13:05:40.893Z,11.04
2023-03-12T13:08:08.244Z,10.99
2023-03-12T13:10:34.677Z,10.99
2023-03-12T13:13:09.427Z,10.89
2023-03-12T13:15:39.199Z,10.84
2023-03-12T13:18:11.270Z,10.77
2023-03-12T13:21:00.028Z,10.78
2023-03-12T13:23:37.405Z,10.70
2023-03-12T13:26:30.647Z,10.71
2023-03-12T13:29:34.302Z,10.64
2023-03-12T13:32:01.188Z,10.56
2023-03-12T13:34:28.247Z,10.56
2023-03-12T13:37:01.543Z,10.54
2023-03-12T13:39:32.233Z,10.50
2023-03-12T13:42:01.784Z,10.46
2023-03-12T13:44:28.253Z,10.34
2023-03-12T13:47:15.797Z,10.32
2023-03-12T13:49:53.178Z,10.46
2023-03-12T13:52:24.976Z,10.50
2023-03-12T13:54:59.917Z,10.46
2023-03-12T13:57:46.301Z,10.44
2023-03-12T14:00:21.188Z,10.51
2023-03-12T14:03:28.970Z,10.81
2023-03-12T14:06:01.015Z,11.10
2023-03-12T14:08:46.955Z,11.43
2023-03-12T14:11:40.559Z,11.60
2023-03-12T14:14:34.853Z,11.73
2023-03-12T14:17:03.692Z,11.60
2023-03-12T14:19:33.640Z,11.56
2023-03-12T14:22:05.242Z,11.46
2023-03-12T14:24:39.888Z,11.44
2023-03-12T14:27:13.903Z,11.51
2023-03-12T14:29:47.362Z,11.45
2023-03-12T14:32:19.988Z,11.41
2023-03-12T14:34:54.522Z,11.58
2023-03-12T14:37:38.913Z,11.71
2023-03-12T14:40:21.665Z,11.73
2023-03-12T14:42:48.555Z,11.56
2023-03-12T14:45:19.284Z,11.59
2023-03-12T14:47:52.819Z,11.52
2023-03-12T14:50:28.205Z,11.94
2023-03-12T14:53:10.240Z,12.00
2023-03-12T14:55:37.091Z,11.89
2023-03-12T14:58:17.579Z,11.68
2023-03-12T15:00:45.548Z,11.98
2023-03-12T15:03:17.509Z,12.18
2023-03-12T15:05:48.480Z,12.17
2023-03-12T15:08:15.207Z,12.19
2023-03-12T15:10:50.130Z,11.93
2023-03-12T15:13:19.555Z,11.92
2023-03-12T15:15:55.115Z,11.76
2023-03-12T15:18:26.516Z,11.84
2023-03-12T15:20:54.281Z,11.75
2023-03-12T15:23:23.627Z,11.79
2023-03-12T15:26:20.317Z,11.75
2023-03-12T15:29:00.796Z,11.73
2023-03-12T15:31:28.095Z,11.65
2023-03-12T15:34:04.045Z,11.57
2023-03-12T15:36:33.271Z,11.47
2023-03-12T15:39:20.463Z,11.41
2023-03-12T15:41:48.932Z,11.43
2023-03-12T15:44:21.318Z,11.43
2023-03-12T15:47:05.623Z,11.27
2023-03-12T15:49:36.060Z,11.31
2023-03-12T15:52:08.487Z,11.30
2023-03-12T15:54:36.463Z,11.29
2023-03-12T15:57:22.733Z,11.33
2023-03-12T16:00:10.681Z,11.19
2023-03-12T16:02:49.445Z,11.10
2023-03-12T16:05:16.679Z,11.09
2023-03-12T16:07:43.189Z,11.04
2023-03-12T16:10:14.383Z,10.98
2023-03-12T16:12:44.342Z,10.97
2023-03-12T16:15:16.529Z,10.97
2023-03-12T16:17:43.462Z,10.93
2023-03-12T16:20:12.974Z,10.85
2023-03-12T16:22:39.805Z,10.83
2023-03-12T16:25:09.614Z,10.78
2023-03-12T16:27:39.795Z,10.75
2023-03-12T16:30:14.430Z,10.74
2023-03-12T16:32:40.872Z,10.63
2023-03-12T16:35:17.052Z,10.61
2023-03-12T16:37:43.720Z,10.58
2023-03-12T16:40:14.487Z,10.49
2023-03-12T16:42:47.116Z,10.47
2023-03-12T16:45:15.374Z,10.43
2023-03-12T16:47:42.729Z,10.36
2023-03-12T16:50:14.804Z,10.32
2023-03-12T16:52:41.806Z,10.27
2023-03-12T16:55:08.691Z,10.24
2023-03-12T16:57:38.321Z,10.17
2023-03-12T17:00:08.589Z,10.18
2023-03-12T17:02:36.026Z,10.10
2023-03-12T17:05:02.457Z,10.04
2023-03-12T17:07:28.926Z,10.00
2023-03-12T17:09:55.391Z,9.97
2023-03-12T17:12:29.022Z,9.94
2023-03-12T17:14:56.590Z,9.96
2023-03-12T17:17:24.185Z,9.89
2023-03-12T17:19:51.136Z,9.81
2023-03-12T17:22:22.206Z,9.85
2023-03-12T17:24:48.748Z,9.83
2023-03-12T17:27:15.563Z,9.78
2023-03-12T17:29:42.097Z,9.73
2023-03-12T17:32:08.843Z,9.67
2023-03-12T17:34:35.322Z,9.59
2023-03-12T17:37:01.854Z,9.51
2023-03-12T17:39:28.406Z,9.42
2023-03-12T17:41:55.533Z,9.32
2023-03-12T17:44:26.279Z,9.25
2023-03-12T17:46:59.772Z,9.18
2023-03-12T17:49:27.664Z,9.13
2023-03-12T17:51:54.534Z,9.06
2023-03-12T17:54:21.115Z,9.01
2023-03-12T17:56:47.692Z,8.98
2023-03-12T17:59:14.413Z,8.93
2023-03-12T18:01:40.793Z,8.84
2023-03-12T18:04:07.249Z,8.85
2023-03-12T18:06:34.471Z,8.72
2023-03-12T18:09:01.212Z,8.60
2023-03-12T18:11:27.984Z,8.50
2023-03-12T18:13:54.719Z,8.40
2023-03-12T18:16:21.205Z,8.31
2023-03-12T18:18:48.039Z,8.22
2023-03-12T18:21:14.384Z,8.21
2023-03-12T18:23:42.040Z,8.24
2023-03-12T18:26:08.559Z,8.23
2023-03-12T18:28:35.054Z,8.22
2023-03-12T18:31:01.527Z,8.23
2023-03-12T18:33:27.965Z,8.22
2023-03-12T18:35:54.714Z,8.21
2023-03-12T18:38:21.512Z,8.21
2023-03-12T18:40:48.221Z,8.20
2023-03-12T18:43:16.119Z,8.22
2023-03-12T18:45:43.114Z,8.19
2023-03-12T18:48:10.093Z,8.18
2023-03-12T18:50:36.659Z,8.14
2023-03-12T18:53:03.617Z,8.12
2023-03-12T18:55:30.270Z,8.10
2023-03-12T18:57:56.707Z,8.08
2023-03-12T19:00:23.677Z,8.09
2023-03-12T19:02:50.338Z,8.05
2023-03-12T19:05:17.093Z,8.04
2023-03-12T19:07:44.207Z,8.03
2023-03-12T19:10:12.693Z,7.99
2023-03-12T19:12:51.525Z,7.94
2023-03-12T19:15:19.345Z,7.94
2023-03-12T19:17:46.189Z,7.95
2023-03-12T19:20:13.017Z,7.94
2023-03-12T19:22:39.753Z,7.95
2023-03-12T19:25:06.418Z,7.96
2023-03-12T19:27:33.067Z,7.99
2023-03-12T19:29:59.480Z,7.98
2023-03-12T19:32:33.275Z,7.95
2023-03-12T19:35:11.221Z,7.96
2023-03-12T19:37:38.133Z,7.91
2023-03-12T19:40:05.496Z,7.86
2023-03-12T19:42:32.675Z,7.84
2023-03-12T19:45:00.212Z,7.78
2023-03-12T19:47:26.873Z,7.73
2023-03-12T19:49:53.392Z,7.63
2023-03-12T19:52:19.844Z,7.55
2023-03-12T19:54:54.703Z,7.50
2023-03-12T19:57:29.648Z,7.42
2023-03-12T19:59:56.079Z,7.37
2023-03-12T20:02:22.837Z,7.34
2023-03-12T20:04:49.429Z,7.30
2023-03-12T20:07:15.862Z,7.29
2023-03-12T20:09:42.306Z,7.23
2023-03-12T20:12:08.639Z,7.21
2023-03-12T20:14:35.336Z,7.21
2023-03-12T20:17:01.893Z,7.17
2023-03-12T20:19:28.525Z,7.15
2023-03-12T20:21:54.881Z,7.12
2023-03-12T20:24:21.407Z,7.10
2023-03-12T20:26:47.748Z,7.08
2023-03-12T20:29:14.457Z,7.02
2023-03-12T20:31:42.744Z,6.99
2023-03-12T20:34:09.217Z,6.99
2023-03-12T20:36:35.572Z,7.00
2023-03-12T20:39:02.216Z,6.99
2023-03-12T20:41:28.622Z,6.99
2023-03-12T20:43:56.310Z,7.00
2023-03-12T20:46:23.155Z,6.98
2023-03-12T20:48:49.771Z,6.96
2023-03-12T20:51:16.250Z,6.96
2023-03-12T20:53:43.089Z,6.93
2023-03-12T20:56:10.595Z,6.93
2023-03-12T20:58:37.633Z,6.93
2023-03-12T21:01:05.485Z,6.93
2023-03-12T21:03:32.948Z,6.87
2023-03-12T21:06:01.998Z,6.87
2023-03-12T21:08:29.022Z,6.88
2023-03-12T21:10:55.617Z,6.89
2023-03-12T21:13:23.505Z,6.86
2023-03-12T21:15:50.501Z,6.85
2023-03-12T21:18:17.920Z,6.84
2023-03-12T21:20:44.772Z,6.76
2023-03-12T21:23:12.036Z,6.70
2023-03-12T21:25:40.911Z,6.66
2023-03-12T21:28:08.958Z,6.61
2023-03-12T21:30:36.019Z,6.59
2023-03-12T21:33:03.103Z,6.50
2023-03-12T21:35:29.635Z,6.46
2023-03-12T21:37:56.079Z,6.42
2023-03-12T21:40:23.919Z,6.37
2023-03-12T21:42:50.381Z,6.32
2023-03-12T21:45:17.058Z,6.30
2023-03-12T21:47:43.585Z,6.27
2023-03-12T21:50:10.765Z,6.24
2023-03-12T21:52:37.488Z,6.20
2023-03-12T21:55:04.100Z,6.16
2023-03-12T21:57:30.571Z,6.12
2023-03-12T21:59:57.180Z,6.05
2023-03-12T22:02:23.730Z,5.98
2023-03-12T22:04:50.444Z,5.94
2023-03-12T22:07:17.147Z,5.89
2023-03-12T22:09:43.508Z,5.85
2023-03-12T22:12:14.264Z,5.79
2023-03-12T22:14:41.008Z,5.77
2023-03-12T22:17:09.796Z,5.75
2023-03-12T22:19:36.519Z,5.71
2023-03-12T22:22:02.893Z,5.68
2023-03-12T22:24:30.429Z,5.60
2023-03-12T22:26:57.494Z,5.54
2023-03-12T22:29:23.902Z,5.50
2023-03-12T22:31:50.655Z,5.45
2023-03-12T22:34:17.873Z,5.42
2023-03-12T22:36:44.338Z,5.38
2023-03-12T22:39:10.808Z,5.37
2023-03-12T22:41:37.471Z,5.37
2023-03-12T22:44:06.973Z,5.32
2023-03-12T22:46:33.873Z,5.28
2023-03-12T22:49:01.957Z,5.24
2023-03-12T22:51:31.497Z,5.18
2023-03-12T22:53:58.170Z,5.12
2023-03-12T22:56:25.516Z,5.09
2023-03-12T22:58:51.975Z,5.03
2023-03-12T23:01:22.487Z,5.00
2023-03-12T23:03:49.719Z,4.97
2023-03-12T23:06:19.150Z,4.94
2023-03-12T23:08:48.207Z,4.89
2023-03-12T23:11:15.754Z,4.85
2023-03-12T23:13:44.150Z,4.82
2023-03-12T23:16:17.505Z,4.81
2023-03-12T23:18:44.045Z,4.77
2023-03-12T23:21:13.285Z,4.74
2023-03-12T23:23:40.246Z,4.74
2023-03-12T23:26:06.851Z,4.71
2023-03-12T23:28:33.481Z,4.67
2023-03-12T23:31:02.883Z,4.62
2023-03-12T23:33:30.461Z,4.58
2023-03-12T23:35:59.638Z,4.54
2023-03-12T23:38:28.098Z,4.53
2023-03-12T23:41:04.750Z,4.50
2023-03-12T23:43:32.104Z,4.48
2023-03-12T23:46:00.253Z,4.50
2023-03-12T23:48:32.596Z,4.45
2023-03-12T23:51:11.559Z,4.48
2023-03-12T23:53:39.825Z,4.44
2023-03-12T23:56:11.651Z,4.44
2023-03-12T23:58:38.774Z,4.43
